sensor_id;sensor_type;location;lat;lon;timestamp;P1;durP1;ratioP1;P2;durP2;ratioP2
35675;SDS011;21790;42.668;23.298;2022-10-20T00:27:09;25.48;;;12.68;;
35675;SDS011;21790;42.668;23.298;2022-10-20T00:29:35;22.98;;;12.63;;
35675;SDS011;21790;42.668;23.298;2022-10-20T02:46:42;13.30;;;8.35;;
35675;SDS011;21790;42.668;23.298;2022-10-20T02:49:08;14.00;;;8.07;;
35675;SDS011;21790;42.668;23.298;2022-10-20T02:51:34;13.57;;;8.15;;
35675;SDS011;21790;42.668;23.298;2022-10-20T02:54:00;13.32;;;8.18;;
35675;SDS011;21790;42.668;23.298;2022-10-20T02:56:25;14.13;;;8.60;;
35675;SDS011;21790;42.668;23.298;2022-10-20T03:01:16;15.70;;;8.63;;
35675;SDS011;21790;42.668;23.298;2022-10-20T03:03:42;21.33;;;9.05;;
35675;SDS011;21790;42.668;23.298;2022-10-20T03:06:12;15.52;;;8.93;;
35675;SDS011;21790;42.668;23.298;2022-10-20T03:08:39;12.95;;;8.23;;
35675;SDS011;21790;42.668;23.298;2022-10-20T03:11:05;16.13;;;8.52;;
35675;SDS011;21790;42.668;23.298;2022-10-20T03:13:32;16.30;;;8.60;;
35675;SDS011;21790;42.668;23.298;2022-10-20T03:15:58;14.10;;;8.60;;
35675;SDS011;21790;42.668;23.298;2022-10-20T03:18:23;14.65;;;9.02;;
35675;SDS011;21790;42.668;23.298;2022-10-20T03:20:50;14.55;;;8.82;;
35675;SDS011;21790;42.668;23.298;2022-10-20T03:23:16;22.33;;;10.02;;
35675;SDS011;21790;42.668;23.298;2022-10-20T03:25:41;14.88;;;8.98;;
35675;SDS011;21790;42.668;23.298;2022-10-20T03:28:07;15.65;;;8.85;;
35675;SDS011;21790;42.668;23.298;2022-10-20T03:30:32;17.00;;;9.27;;
35675;SDS011;21790;42.668;23.298;2022-10-20T03:32:58;13.88;;;8.30;;
35675;SDS011;21790;42.668;23.298;2022-10-20T03:35:24;18.02;;;9.48;;
35675;SDS011;21790;42.668;23.298;2022-10-20T03:37:49;13.88;;;8.45;;
35675;SDS011;21790;42.668;23.298;2022-10-20T03:40:15;19.73;;;9.25;;
35675;SDS011;21790;42.668;23.298;2022-10-20T03:42:41;13.93;;;9.07;;
35675;SDS011;21790;42.668;23.298;2022-10-20T03:45:07;17.88;;;8.27;;
35675;SDS011;21790;42.668;23.298;2022-10-20T03:47:33;14.50;;;8.70;;
35675;SDS011;21790;42.668;23.298;2022-10-20T03:49:58;19.42;;;8.65;;
35675;SDS011;21790;42.668;23.298;2022-10-20T03:52:24;17.42;;;8.48;;
35675;SDS011;21790;42.668;23.298;2022-10-20T03:54:49;17.40;;;9.35;;
35675;SDS011;21790;42.668;23.298;2022-10-20T03:57:15;21.17;;;9.25;;
35675;SDS011;21790;42.668;23.298;2022-10-20T03:59:41;13.52;;;8.48;;
35675;SDS011;21790;42.668;23.298;2022-10-20T04:02:06;15.43;;;8.55;;
35675;SDS011;21790;42.668;23.298;2022-10-20T04:04:32;17.08;;;8.57;;
35675;SDS011;21790;42.668;23.298;2022-10-20T04:06:57;16.90;;;8.73;;
35675;SDS011;21790;42.668;23.298;2022-10-20T04:09:23;12.77;;;8.25;;
35675;SDS011;21790;42.668;23.298;2022-10-20T04:11:48;18.20;;;8.88;;
35675;SDS011;21790;42.668;23.298;2022-10-20T04:14:13;16.52;;;8.85;;
35675;SDS011;21790;42.668;23.298;2022-10-20T04:16:39;18.23;;;9.27;;
35675;SDS011;21790;42.668;23.298;2022-10-20T04:19:06;20.67;;;9.25;;
35675;SDS011;21790;42.668;23.298;2022-10-20T04:21:31;15.50;;;9.20;;
35675;SDS011;21790;42.668;23.298;2022-10-20T04:23:57;14.57;;;8.25;;
35675;SDS011;21790;42.668;23.298;2022-10-20T04:26:22;18.63;;;8.65;;
35675;SDS011;21790;42.668;23.298;2022-10-20T04:31:26;14.02;;;8.00;;
35675;SDS011;21790;42.668;23.298;2022-10-20T04:33:51;12.77;;;8.50;;
35675;SDS011;21790;42.668;23.298;2022-10-20T04:36:17;21.17;;;8.45;;
35675;SDS011;21790;42.668;23.298;2022-10-20T04:38:43;19.45;;;9.32;;
35675;SDS011;21790;42.668;23.298;2022-10-20T04:41:09;14.25;;;8.55;;
35675;SDS011;21790;42.668;23.298;2022-10-20T04:46:44;13.52;;;7.93;;
35675;SDS011;21790;42.668;23.298;2022-10-20T04:49:23;16.50;;;7.82;;
35675;SDS011;21790;42.668;23.298;2022-10-20T04:51:49;17.17;;;7.85;;
35675;SDS011;21790;42.668;23.298;2022-10-20T04:54:15;21.65;;;9.48;;
35675;SDS011;21790;42.668;23.298;2022-10-20T04:59:16;14.73;;;7.78;;
35675;SDS011;21790;42.668;23.298;2022-10-20T05:01:42;16.38;;;8.50;;
35675;SDS011;21790;42.668;23.298;2022-10-20T05:04:08;15.15;;;8.43;;
35675;SDS011;21790;42.668;23.298;2022-10-20T05:06:35;15.25;;;9.43;;
35675;SDS011;21790;42.668;23.298;2022-10-20T05:09:16;16.85;;;9.27;;
35675;SDS011;21790;42.668;23.298;2022-10-20T05:11:42;15.25;;;8.77;;
35675;SDS011;21790;42.668;23.298;2022-10-20T05:19:35;14.02;;;8.20;;
35675;SDS011;21790;42.668;23.298;2022-10-20T05:22:20;12.57;;;7.95;;
35675;SDS011;21790;42.668;23.298;2022-10-20T05:24:46;13.63;;;7.78;;
35675;SDS011;21790;42.668;23.298;2022-10-20T05:27:11;18.48;;;8.43;;
35675;SDS011;21790;42.668;23.298;2022-10-20T05:32:29;16.60;;;8.43;;
35675;SDS011;21790;42.668;23.298;2022-10-20T05:34:54;14.73;;;7.53;;
35675;SDS011;21790;42.668;23.298;2022-10-20T05:37:20;19.48;;;7.95;;
35675;SDS011;21790;42.668;23.298;2022-10-20T05:39:46;15.48;;;8.32;;
35675;SDS011;21790;42.668;23.298;2022-10-20T05:42:11;11.88;;;7.72;;
35675;SDS011;21790;42.668;23.298;2022-10-20T05:44:36;20.23;;;7.90;;
35675;SDS011;21790;42.668;23.298;2022-10-20T05:47:02;13.07;;;8.23;;
35675;SDS011;21790;42.668;23.298;2022-10-20T05:49:27;16.35;;;8.20;;
35675;SDS011;21790;42.668;23.298;2022-10-20T05:51:53;22.45;;;8.55;;
35675;SDS011;21790;42.668;23.298;2022-10-20T05:54:19;15.65;;;9.18;;
35675;SDS011;21790;42.668;23.298;2022-10-20T05:56:44;16.30;;;9.13;;
35675;SDS011;21790;42.668;23.298;2022-10-20T05:59:10;13.45;;;8.02;;
35675;SDS011;21790;42.668;23.298;2022-10-20T06:01:36;15.68;;;8.40;;
35675;SDS011;21790;42.668;23.298;2022-10-20T06:04:14;16.90;;;8.65;;
35675;SDS011;21790;42.668;23.298;2022-10-20T06:06:50;12.30;;;8.35;;
35675;SDS011;21790;42.668;23.298;2022-10-20T06:12:17;16.48;;;9.40;;
35675;SDS011;21790;42.668;23.298;2022-10-20T06:25:20;17.67;;;10.05;;
35675;SDS011;21790;42.668;23.298;2022-10-20T06:27:55;21.77;;;9.07;;
35675;SDS011;21790;42.668;23.298;2022-10-20T06:30:21;16.85;;;9.77;;
35675;SDS011;21790;42.668;23.298;2022-10-20T06:32:51;18.77;;;9.32;;
35675;SDS011;21790;42.668;23.298;2022-10-20T06:37:58;17.45;;;8.68;;
35675;SDS011;21790;42.668;23.298;2022-10-20T06:40:23;15.93;;;9.50;;
35675;SDS011;21790;42.668;23.298;2022-10-20T06:42:56;14.40;;;9.15;;
35675;SDS011;21790;42.668;23.298;2022-10-20T06:45:21;20.90;;;9.43;;
35675;SDS011;21790;42.668;23.298;2022-10-20T06:54:01;13.55;;;8.98;;
35675;SDS011;21790;42.668;23.298;2022-10-20T06:56:29;17.15;;;8.85;;
35675;SDS011;21790;42.668;23.298;2022-10-20T06:59:02;15.02;;;9.25;;
35675;SDS011;21790;42.668;23.298;2022-10-20T07:01:33;18.40;;;9.05;;
35675;SDS011;21790;42.668;23.298;2022-10-20T07:04:08;19.40;;;9.52;;
35675;SDS011;21790;42.668;23.298;2022-10-20T07:06:36;18.55;;;8.70;;
35675;SDS011;21790;42.668;23.298;2022-10-20T07:09:04;10.77;;;7.53;;
35675;SDS011;21790;42.668;23.298;2022-10-20T07:11:35;12.60;;;8.77;;
35675;SDS011;21790;42.668;23.298;2022-10-20T07:14:01;22.42;;;9.23;;
35675;SDS011;21790;42.668;23.298;2022-10-20T07:16:28;16.88;;;7.38;;
35675;SDS011;21790;42.668;23.298;2022-10-20T07:19:01;16.42;;;8.05;;
35675;SDS011;21790;42.668;23.298;2022-10-20T07:21:27;15.50;;;8.20;;
35675;SDS011;21790;42.668;23.298;2022-10-20T07:26:31;13.18;;;8.02;;
35675;SDS011;21790;42.668;23.298;2022-10-20T07:28:59;11.35;;;7.90;;
35675;SDS011;21790;42.668;23.298;2022-10-20T07:31:26;17.33;;;8.23;;
35675;SDS011;21790;42.668;23.298;2022-10-20T07:36:35;13.48;;;7.40;;
35675;SDS011;21790;42.668;23.298;2022-10-20T07:39:02;15.82;;;7.57;;
35675;SDS011;21790;42.668;23.298;2022-10-20T07:41:37;13.95;;;7.75;;
35675;SDS011;21790;42.668;23.298;2022-10-20T07:44:06;12.73;;;8.02;;
35675;SDS011;21790;42.668;23.298;2022-10-20T07:46:32;20.73;;;8.57;;
35675;SDS011;21790;42.668;23.298;2022-10-20T07:48:57;16.35;;;7.95;;
35675;SDS011;21790;42.668;23.298;2022-10-20T07:51:29;16.27;;;9.63;;
35675;SDS011;21790;42.668;23.298;2022-10-20T07:54:02;16.05;;;7.88;;
35675;SDS011;21790;42.668;23.298;2022-10-20T07:56:35;12.60;;;7.93;;
35675;SDS011;21790;42.668;23.298;2022-10-20T08:29:00;13.85;;;7.03;;
35675;SDS011;21790;42.668;23.298;2022-10-20T08:34:15;16.48;;;7.47;;
35675;SDS011;21790;42.668;23.298;2022-10-20T08:36:50;18.98;;;7.38;;
35675;SDS011;21790;42.668;23.298;2022-10-20T08:42:25;10.65;;;5.95;;
35675;SDS011;21790;42.668;23.298;2022-10-20T09:41:00;5.20;;;2.42;;
35675;SDS011;21790;42.668;23.298;2022-10-20T09:43:39;3.80;;;2.67;;
35675;SDS011;21790;42.668;23.298;2022-10-20T09:46:11;3.10;;;2.25;;
35675;SDS011;21790;42.668;23.298;2022-10-20T09:48:47;4.93;;;2.65;;
35675;SDS011;21790;42.668;23.298;2022-10-20T09:51:15;7.35;;;2.80;;
35675;SDS011;21790;42.668;23.298;2022-10-20T09:53:49;5.10;;;2.85;;
35675;SDS011;21790;42.668;23.298;2022-10-20T09:58:59;3.08;;;2.33;;
35675;SDS011;21790;42.668;23.298;2022-10-20T10:01:29;7.97;;;3.42;;
35675;SDS011;21790;42.668;23.298;2022-10-20T10:08:52;4.85;;;2.55;;
35675;SDS011;21790;42.668;23.298;2022-10-20T10:11:19;5.05;;;3.28;;
35675;SDS011;21790;42.668;23.298;2022-10-20T10:13:49;5.10;;;2.85;;
35675;SDS011;21790;42.668;23.298;2022-10-20T10:16:18;5.50;;;2.70;;
35675;SDS011;21790;42.668;23.298;2022-10-20T10:18:53;4.15;;;2.83;;
35675;SDS011;21790;42.668;23.298;2022-10-20T10:21:20;4.82;;;3.10;;
35675;SDS011;21790;42.668;23.298;2022-10-20T10:24:05;4.38;;;2.80;;
35675;SDS011;21790;42.668;23.298;2022-10-20T10:26:51;5.25;;;3.17;;
35675;SDS011;21790;42.668;23.298;2022-10-20T11:14:06;7.40;;;3.13;;
35675;SDS011;21790;42.668;23.298;2022-10-20T11:25:19;5.05;;;3.05;;
35675;SDS011;21790;42.668;23.298;2022-10-20T11:27:47;4.88;;;2.88;;
35675;SDS011;21790;42.668;23.298;2022-10-20T11:30:19;7.10;;;2.95;;
35675;SDS011;21790;42.668;23.298;2022-10-20T11:40:54;5.43;;;2.75;;
35675;SDS011;21790;42.668;23.298;2022-10-20T11:43:26;5.95;;;3.22;;
35675;SDS011;21790;42.668;23.298;2022-10-20T11:45:55;6.07;;;3.25;;
35675;SDS011;21790;42.668;23.298;2022-10-20T11:48:29;4.55;;;2.63;;
35675;SDS011;21790;42.668;23.298;2022-10-20T11:53:52;5.10;;;3.67;;
35675;SDS011;21790;42.668;23.298;2022-10-20T12:15:32;4.85;;;3.25;;
35675;SDS011;21790;42.668;23.298;2022-10-20T12:18:21;4.00;;;3.20;;
35675;SDS011;21790;42.668;23.298;2022-10-20T12:20:56;4.93;;;3.40;;
35675;SDS011;21790;42.668;23.298;2022-10-20T12:34:56;4.78;;;2.72;;
35675;SDS011;21790;42.668;23.298;2022-10-20T12:37:32;4.43;;;2.80;;
35675;SDS011;21790;42.668;23.298;2022-10-20T12:45:46;4.53;;;2.40;;
35675;SDS011;21790;42.668;23.298;2022-10-20T12:51:00;5.50;;;3.22;;
35675;SDS011;21790;42.668;23.298;2022-10-20T12:53:28;6.90;;;3.10;;
35675;SDS011;21790;42.668;23.298;2022-10-20T12:55:59;5.70;;;2.70;;
35675;SDS011;21790;42.668;23.298;2022-10-20T13:15:27;6.70;;;3.00;;
35675;SDS011;21790;42.668;23.298;2022-10-20T13:18:17;7.50;;;3.03;;
35675;SDS011;21790;42.668;23.298;2022-10-20T13:24:15;8.57;;;3.53;;
35675;SDS011;21790;42.668;23.298;2022-10-20T13:32:26;5.93;;;3.00;;
35675;SDS011;21790;42.668;23.298;2022-10-20T13:35:21;6.93;;;2.53;;
35675;SDS011;21790;42.668;23.298;2022-10-20T13:38:15;4.28;;;2.70;;
35675;SDS011;21790;42.668;23.298;2022-10-20T13:40:57;5.43;;;2.22;;
35675;SDS011;21790;42.668;23.298;2022-10-20T13:52:12;12.98;;;3.42;;
35675;SDS011;21790;42.668;23.298;2022-10-20T13:59:59;13.27;;;3.07;;
35675;SDS011;21790;42.668;23.298;2022-10-20T14:02:32;11.40;;;3.25;;
35675;SDS011;21790;42.668;23.298;2022-10-20T14:34:55;8.05;;;3.40;;
35675;SDS011;21790;42.668;23.298;2022-10-20T14:37:29;8.93;;;2.78;;
35675;SDS011;21790;42.668;23.298;2022-10-20T14:40:00;8.02;;;2.97;;
35675;SDS011;21790;42.668;23.298;2022-10-20T14:47:21;4.10;;;2.60;;
35675;SDS011;21790;42.668;23.298;2022-10-20T14:49:48;5.78;;;3.00;;
35675;SDS011;21790;42.668;23.298;2022-10-20T14:54:43;5.45;;;2.72;;
35675;SDS011;21790;42.668;23.298;2022-10-20T14:59:36;5.88;;;2.80;;
35675;SDS011;21790;42.668;23.298;2022-10-20T15:02:15;5.93;;;3.85;;
35675;SDS011;21790;42.668;23.298;2022-10-20T15:04:45;11.05;;;5.28;;
35675;SDS011;21790;42.668;23.298;2022-10-20T15:07:13;20.60;;;3.90;;
35675;SDS011;21790;42.668;23.298;2022-10-20T15:09:42;7.45;;;3.28;;
35675;SDS011;21790;42.668;23.298;2022-10-20T15:14:49;5.90;;;3.58;;
35675;SDS011;21790;42.668;23.298;2022-10-20T15:31:14;7.63;;;3.67;;
35675;SDS011;21790;42.668;23.298;2022-10-20T15:33:43;5.93;;;3.30;;
35675;SDS011;21790;42.668;23.298;2022-10-20T15:36:10;8.82;;;3.30;;
35675;SDS011;21790;42.668;23.298;2022-10-20T15:38:45;7.50;;;3.00;;
35675;SDS011;21790;42.668;23.298;2022-10-20T15:41:15;14.13;;;6.05;;
35675;SDS011;21790;42.668;23.298;2022-10-20T15:43:45;15.50;;;4.85;;
35675;SDS011;21790;42.668;23.298;2022-10-20T15:46:11;9.85;;;4.97;;
35675;SDS011;21790;42.668;23.298;2022-10-20T15:48:38;13.93;;;4.75;;
35675;SDS011;21790;42.668;23.298;2022-10-20T15:51:04;15.70;;;4.72;;
35675;SDS011;21790;42.668;23.298;2022-10-20T15:53:39;7.70;;;4.30;;
35675;SDS011;21790;42.668;23.298;2022-10-20T15:56:04;15.48;;;4.80;;
35675;SDS011;21790;42.668;23.298;2022-10-20T15:58:30;10.85;;;4.53;;
35675;SDS011;21790;42.668;23.298;2022-10-20T16:00:56;7.28;;;3.67;;
35675;SDS011;21790;42.668;23.298;2022-10-20T16:03:22;15.95;;;5.13;;
35675;SDS011;21790;42.668;23.298;2022-10-20T16:05:47;8.93;;;3.90;;
35675;SDS011;21790;42.668;23.298;2022-10-20T16:08:13;10.50;;;4.30;;
35675;SDS011;21790;42.668;23.298;2022-10-20T16:10:38;12.57;;;4.15;;
35675;SDS011;21790;42.668;23.298;2022-10-20T16:13:05;6.95;;;3.90;;
35675;SDS011;21790;42.668;23.298;2022-10-20T16:15:31;7.07;;;4.07;;
35675;SDS011;21790;42.668;23.298;2022-10-20T16:17:57;8.57;;;4.13;;
35675;SDS011;21790;42.668;23.298;2022-10-20T16:20:22;8.48;;;4.28;;
35675;SDS011;21790;42.668;23.298;2022-10-20T16:22:48;7.93;;;4.15;;
35675;SDS011;21790;42.668;23.298;2022-10-20T16:25:14;7.65;;;3.83;;
35675;SDS011;21790;42.668;23.298;2022-10-20T16:27:39;8.50;;;4.20;;
35675;SDS011;21790;42.668;23.298;2022-10-20T16:30:05;8.70;;;4.60;;
35675;SDS011;21790;42.668;23.298;2022-10-20T16:32:33;11.25;;;4.50;;
35675;SDS011;21790;42.668;23.298;2022-10-20T16:34:58;9.52;;;4.05;;
35675;SDS011;21790;42.668;23.298;2022-10-20T16:37:24;13.20;;;5.00;;
35675;SDS011;21790;42.668;23.298;2022-10-20T16:39:50;17.75;;;5.00;;
35675;SDS011;21790;42.668;23.298;2022-10-20T16:42:15;10.48;;;4.90;;
35675;SDS011;21790;42.668;23.298;2022-10-20T16:44:41;11.00;;;4.72;;
35675;SDS011;21790;42.668;23.298;2022-10-20T16:47:06;20.75;;;4.88;;
35675;SDS011;21790;42.668;23.298;2022-10-20T16:49:32;14.10;;;5.60;;
35675;SDS011;21790;42.668;23.298;2022-10-20T16:51:57;11.23;;;5.47;;
35675;SDS011;21790;42.668;23.298;2022-10-20T16:54:24;10.00;;;4.80;;
35675;SDS011;21790;42.668;23.298;2022-10-20T16:56:50;8.80;;;4.60;;
35675;SDS011;21790;42.668;23.298;2022-10-20T16:59:15;10.63;;;5.38;;
35675;SDS011;21790;42.668;23.298;2022-10-20T17:01:41;10.52;;;5.70;;
35675;SDS011;21790;42.668;23.298;2022-10-20T17:04:06;11.13;;;5.72;;
35675;SDS011;21790;42.668;23.298;2022-10-20T17:06:31;11.70;;;5.35;;
35675;SDS011;21790;42.668;23.298;2022-10-20T17:08:57;14.70;;;6.05;;
35675;SDS011;21790;42.668;23.298;2022-10-20T17:13:58;14.85;;;5.53;;
35675;SDS011;21790;42.668;23.298;2022-10-20T17:16:24;14.30;;;6.30;;
35675;SDS011;21790;42.668;23.298;2022-10-20T17:18:53;15.63;;;7.03;;
35675;SDS011;21790;42.668;23.298;2022-10-20T17:21:19;12.90;;;6.55;;
35675;SDS011;21790;42.668;23.298;2022-10-20T17:23:45;11.30;;;5.10;;
35675;SDS011;21790;42.668;23.298;2022-10-20T17:26:15;29.00;;;13.45;;
35675;SDS011;21790;42.668;23.298;2022-10-20T17:28:49;23.02;;;9.10;;
35675;SDS011;21790;42.668;23.298;2022-10-20T17:31:17;15.20;;;7.65;;
35675;SDS011;21790;42.668;23.298;2022-10-20T17:33:43;12.32;;;5.82;;
35675;SDS011;21790;42.668;23.298;2022-10-20T17:36:09;12.18;;;5.85;;
35675;SDS011;21790;42.668;23.298;2022-10-20T17:38:36;14.55;;;6.50;;
35675;SDS011;21790;42.668;23.298;2022-10-20T17:41:06;18.33;;;6.20;;
35675;SDS011;21790;42.668;23.298;2022-10-20T17:43:33;16.10;;;5.03;;
35675;SDS011;21790;42.668;23.298;2022-10-20T17:46:00;9.27;;;5.60;;
35675;SDS011;21790;42.668;23.298;2022-10-20T17:48:30;16.08;;;5.53;;
35675;SDS011;21790;42.668;23.298;2022-10-20T17:53:51;11.52;;;5.15;;
35675;SDS011;21790;42.668;23.298;2022-10-20T17:56:21;11.20;;;5.00;;
35675;SDS011;21790;42.668;23.298;2022-10-20T17:58:55;10.75;;;4.80;;
35675;SDS011;21790;42.668;23.298;2022-10-20T18:01:26;11.52;;;5.70;;
35675;SDS011;21790;42.668;23.298;2022-10-20T18:04:13;11.10;;;5.30;;
35675;SDS011;21790;42.668;23.298;2022-10-20T18:06:40;12.57;;;4.93;;
35675;SDS011;21790;42.668;23.298;2022-10-20T18:09:08;8.60;;;4.53;;
35675;SDS011;21790;42.668;23.298;2022-10-20T18:11:36;10.10;;;4.85;;
35675;SDS011;21790;42.668;23.298;2022-10-20T18:14:03;12.27;;;5.13;;
35675;SDS011;21790;42.668;23.298;2022-10-20T18:16:30;10.80;;;4.78;;
35675;SDS011;21790;42.668;23.298;2022-10-20T18:18:58;14.73;;;5.53;;
35675;SDS011;21790;42.668;23.298;2022-10-20T18:21:24;10.32;;;4.60;;
35675;SDS011;21790;42.668;23.298;2022-10-20T18:23:57;8.93;;;4.85;;
35675;SDS011;21790;42.668;23.298;2022-10-20T18:26:30;9.85;;;4.85;;
35675;SDS011;21790;42.668;23.298;2022-10-20T18:28:58;6.60;;;4.25;;
35675;SDS011;21790;42.668;23.298;2022-10-20T18:31:25;13.85;;;4.68;;
35675;SDS011;21790;42.668;23.298;2022-10-20T18:34:05;8.02;;;4.95;;
35675;SDS011;21790;42.668;23.298;2022-10-20T18:36:34;8.25;;;4.60;;
35675;SDS011;21790;42.668;23.298;2022-10-20T18:39:01;8.93;;;4.88;;
35675;SDS011;21790;42.668;23.298;2022-10-20T18:41:29;11.77;;;4.82;;
35675;SDS011;21790;42.668;23.298;2022-10-20T18:43:57;10.63;;;5.35;;
35675;SDS011;21790;42.668;23.298;2022-10-20T18:46:28;9.57;;;4.90;;
35675;SDS011;21790;42.668;23.298;2022-10-20T18:48:55;14.40;;;4.75;;
35675;SDS011;21790;42.668;23.298;2022-10-20T18:51:24;12.05;;;5.75;;
35675;SDS011;21790;42.668;23.298;2022-10-20T18:53:51;12.77;;;5.18;;
35675;SDS011;21790;42.668;23.298;2022-10-20T18:56:19;9.23;;;5.15;;
35675;SDS011;21790;42.668;23.298;2022-10-20T18:58:50;9.90;;;5.68;;
35675;SDS011;21790;42.668;23.298;2022-10-20T19:01:20;10.68;;;5.22;;
35675;SDS011;21790;42.668;23.298;2022-10-20T19:03:48;7.45;;;4.78;;
35675;SDS011;21790;42.668;23.298;2022-10-20T19:08:46;11.93;;;4.90;;
35675;SDS011;21790;42.668;23.298;2022-10-20T19:11:17;11.07;;;5.93;;
35675;SDS011;21790;42.668;23.298;2022-10-20T19:13:43;10.77;;;6.72;;
35675;SDS011;21790;42.668;23.298;2022-10-20T19:16:10;16.17;;;8.45;;
35675;SDS011;21790;42.668;23.298;2022-10-20T19:18:37;11.48;;;6.18;;
35675;SDS011;21790;42.668;23.298;2022-10-20T19:21:06;12.15;;;6.60;;
35675;SDS011;21790;42.668;23.298;2022-10-20T19:23:33;9.38;;;5.40;;
35675;SDS011;21790;42.668;23.298;2022-10-20T19:26:04;11.52;;;6.03;;
35675;SDS011;21790;42.668;23.298;2022-10-20T19:28:49;8.27;;;5.15;;
35675;SDS011;21790;42.668;23.298;2022-10-20T19:33:47;11.07;;;5.78;;
35675;SDS011;21790;42.668;23.298;2022-10-20T19:36:14;12.15;;;6.63;;
35675;SDS011;21790;42.668;23.298;2022-10-20T19:38:40;11.73;;;6.38;;
35675;SDS011;21790;42.668;23.298;2022-10-20T19:41:06;14.00;;;6.15;;
35675;SDS011;21790;42.668;23.298;2022-10-20T19:43:33;13.80;;;6.20;;
35675;SDS011;21790;42.668;23.298;2022-10-20T19:45:59;12.40;;;6.13;;
35675;SDS011;21790;42.668;23.298;2022-10-20T19:48:24;20.63;;;6.60;;
35675;SDS011;21790;42.668;23.298;2022-10-20T19:50:50;10.45;;;5.95;;
35675;SDS011;21790;42.668;23.298;2022-10-20T19:53:16;10.88;;;6.22;;
35675;SDS011;21790;42.668;23.298;2022-10-20T19:55:45;11.13;;;6.28;;
35675;SDS011;21790;42.668;23.298;2022-10-20T19:58:11;13.75;;;6.28;;
35675;SDS011;21790;42.668;23.298;2022-10-20T20:00:41;14.07;;;6.13;;
35675;SDS011;21790;42.668;23.298;2022-10-20T20:03:10;10.90;;;6.20;;
35675;SDS011;21790;42.668;23.298;2022-10-20T20:05:36;11.25;;;6.22;;
35675;SDS011;21790;42.668;23.298;2022-10-20T20:08:02;13.90;;;6.28;;
35675;SDS011;21790;42.668;23.298;2022-10-20T20:10:28;19.40;;;6.78;;
35675;SDS011;21790;42.668;23.298;2022-10-20T20:12:53;10.23;;;5.97;;
35675;SDS011;21790;42.668;23.298;2022-10-20T20:15:19;14.73;;;6.75;;
35675;SDS011;21790;42.668;23.298;2022-10-20T20:17:44;11.00;;;6.15;;
35675;SDS011;21790;42.668;23.298;2022-10-20T20:20:10;12.15;;;6.53;;
35675;SDS011;21790;42.668;23.298;2022-10-20T20:22:35;12.57;;;6.53;;
35675;SDS011;21790;42.668;23.298;2022-10-20T20:25:01;12.35;;;6.60;;
35675;SDS011;21790;42.668;23.298;2022-10-20T20:27:27;13.20;;;7.45;;
35675;SDS011;21790;42.668;23.298;2022-10-20T20:29:52;15.95;;;7.15;;
35675;SDS011;21790;42.668;23.298;2022-10-20T20:32:18;15.82;;;6.68;;
35675;SDS011;21790;42.668;23.298;2022-10-20T20:34:44;15.38;;;7.65;;
35675;SDS011;21790;42.668;23.298;2022-10-20T20:37:10;11.93;;;6.50;;
35675;SDS011;21790;42.668;23.298;2022-10-20T20:39:35;18.73;;;6.30;;
35675;SDS011;21790;42.668;23.298;2022-10-20T20:42:01;14.48;;;6.35;;
35675;SDS011;21790;42.668;23.298;2022-10-20T20:44:26;19.35;;;6.95;;
35675;SDS011;21790;42.668;23.298;2022-10-20T20:46:52;13.32;;;7.05;;
35675;SDS011;21790;42.668;23.298;2022-10-20T20:49:17;13.68;;;7.30;;
35675;SDS011;21790;42.668;23.298;2022-10-20T20:51:43;12.32;;;6.95;;
35675;SDS011;21790;42.668;23.298;2022-10-20T20:54:09;12.85;;;6.38;;
35675;SDS011;21790;42.668;23.298;2022-10-20T20:56:34;11.70;;;5.53;;
35675;SDS011;21790;42.668;23.298;2022-10-20T20:59:00;10.65;;;6.15;;
35675;SDS011;21790;42.668;23.298;2022-10-20T21:01:27;14.88;;;6.10;;
35675;SDS011;21790;42.668;23.298;2022-10-20T21:03:56;9.98;;;6.10;;
35675;SDS011;21790;42.668;23.298;2022-10-20T21:06:23;14.10;;;6.22;;
35675;SDS011;21790;42.668;23.298;2022-10-20T21:08:49;13.52;;;6.25;;
35675;SDS011;21790;42.668;23.298;2022-10-20T21:11:19;7.78;;;4.88;;
35675;SDS011;21790;42.668;23.298;2022-10-20T21:13:47;18.05;;;8.38;;
35675;SDS011;21790;42.668;23.298;2022-10-20T21:16:21;12.45;;;7.43;;
35675;SDS011;21790;42.668;23.298;2022-10-20T21:18:50;12.45;;;7.40;;
35675;SDS011;21790;42.668;23.298;2022-10-20T21:21:18;17.55;;;7.68;;
35675;SDS011;21790;42.668;23.298;2022-10-20T21:23:45;17.50;;;9.35;;
35675;SDS011;21790;42.668;23.298;2022-10-20T21:26:12;20.77;;;8.15;;
35675;SDS011;21790;42.668;23.298;2022-10-20T21:28:39;16.50;;;7.70;;
35675;SDS011;21790;42.668;23.298;2022-10-20T21:31:06;16.05;;;7.82;;
35675;SDS011;21790;42.668;23.298;2022-10-20T21:33:36;19.70;;;8.13;;
35675;SDS011;21790;42.668;23.298;2022-10-20T21:36:06;16.80;;;7.35;;
35675;SDS011;21790;42.668;23.298;2022-10-20T21:38:33;13.70;;;8.00;;
35675;SDS011;21790;42.668;23.298;2022-10-20T21:41:03;12.05;;;6.28;;
35675;SDS011;21790;42.668;23.298;2022-10-20T21:43:30;14.23;;;7.15;;
35675;SDS011;21790;42.668;23.298;2022-10-20T21:46:05;11.30;;;7.07;;
35675;SDS011;21790;42.668;23.298;2022-10-20T21:48:37;18.27;;;6.82;;
35675;SDS011;21790;42.668;23.298;2022-10-20T21:51:07;17.80;;;7.60;;
35675;SDS011;21790;42.668;23.298;2022-10-20T21:53:34;19.30;;;8.23;;
35675;SDS011;21790;42.668;23.298;2022-10-20T21:55:59;12.38;;;7.03;;
35675;SDS011;21790;42.668;23.298;2022-10-20T21:58:25;13.15;;;7.10;;
35675;SDS011;21790;42.668;23.298;2022-10-20T22:00:50;13.63;;;7.18;;
35675;SDS011;21790;42.668;23.298;2022-10-20T22:03:18;13.30;;;7.10;;
35675;SDS011;21790;42.668;23.298;2022-10-20T22:05:44;13.02;;;6.47;;
35675;SDS011;21790;42.668;23.298;2022-10-20T22:08:09;14.40;;;6.72;;
35675;SDS011;21790;42.668;23.298;2022-10-20T22:10:35;14.57;;;7.13;;
35675;SDS011;21790;42.668;23.298;2022-10-20T22:13:01;15.93;;;6.85;;
35675;SDS011;21790;42.668;23.298;2022-10-20T22:15:27;18.40;;;7.30;;
35675;SDS011;21790;42.668;23.298;2022-10-20T22:17:53;12.35;;;7.28;;
35675;SDS011;21790;42.668;23.298;2022-10-20T22:20:18;17.10;;;6.88;;
35675;SDS011;21790;42.668;23.298;2022-10-20T22:22:44;13.38;;;6.57;;
35675;SDS011;21790;42.668;23.298;2022-10-20T22:25:11;11.27;;;6.88;;
35675;SDS011;21790;42.668;23.298;2022-10-20T22:27:37;13.82;;;6.82;;
35675;SDS011;21790;42.668;23.298;2022-10-20T22:30:03;12.52;;;7.22;;
35675;SDS011;21790;42.668;23.298;2022-10-20T22:32:30;18.45;;;6.95;;
35675;SDS011;21790;42.668;23.298;2022-10-20T22:34:55;17.95;;;6.55;;
35675;SDS011;21790;42.668;23.298;2022-10-20T22:37:20;16.48;;;6.63;;
35675;SDS011;21790;42.668;23.298;2022-10-20T22:39:46;17.95;;;9.40;;
35675;SDS011;21790;42.668;23.298;2022-10-20T22:42:11;17.48;;;8.57;;
35675;SDS011;21790;42.668;23.298;2022-10-20T22:44:37;16.55;;;7.65;;
35675;SDS011;21790;42.668;23.298;2022-10-20T22:47:02;16.13;;;7.18;;
35675;SDS011;21790;42.668;23.298;2022-10-20T22:49:28;15.48;;;6.60;;
35675;SDS011;21790;42.668;23.298;2022-10-20T22:51:53;12.55;;;6.57;;
35675;SDS011;21790;42.668;23.298;2022-10-20T22:54:19;13.43;;;7.00;;
35675;SDS011;21790;42.668;23.298;2022-10-20T22:56:44;10.00;;;6.10;;
35675;SDS011;21790;42.668;23.298;2022-10-20T22:59:10;12.07;;;6.00;;
35675;SDS011;21790;42.668;23.298;2022-10-20T23:01:35;11.43;;;6.07;;
35675;SDS011;21790;42.668;23.298;2022-10-20T23:04:01;10.95;;;6.57;;
35675;SDS011;21790;42.668;23.298;2022-10-20T23:06:27;15.63;;;6.80;;